• Join FlightAware (Why Join?)
  • Login
  • US Flag 
12:19PM EDT


 

Airport Tracker/Info


-or-


 

Live Flight TrackerFlight Track Log ✈ SWA3511 ✈ 10-May-2013 ✈ KSEA - KSMF

Flight Track Log - Related Links

Times and Time Zones

All times are in EDT time to prevent confusion due to time zone crossing. See the SWA3511 flight status page for this flight to view local times or setup timezone preferences in your user account.

Time Position Orientation Groundspeed Altitude Reporting Facility
EDT Latitude Longitude Course Direction KTS MPH feet Rate Location/Type
03:31PM 47.4333 -122.3114 182° South 171 197 1,100  Level Seattle Center
03:32PM 47.4186 -122.3122 182° South 175 201 1,800 2,100 Climbing Seattle Center
03:33PM 47.3581 -122.3108 179° South 216 249 3,900 2,220 Climbing Seattle Center
03:34PM 47.2806 -122.3081 179° South 264 304 6,400 2,820 Climbing Seattle Center
03:35PM 47.2078 -122.2725 162° South 275 316 9,700 2,700 Climbing Seattle Center
03:36PM 47.1292 -122.2344 162° South 303 349 11,900 2,280 Climbing Seattle Center
03:37PM 47.0417 -122.1967 164° South 329 379 14,400 2,460 Climbing Seattle Center
03:38PM 46.9372 -122.1883 177° South 349 402 17,000 1,980 Climbing Seattle Center
03:39PM 46.8550 -122.1811 177° South 365 420 18,500 1,860 Climbing Seattle Center
03:40PM 46.7319 -122.1672 176° South 374 430 20,900 2,040 Climbing Seattle Center
03:41PM 46.6231 -122.1597 177° South 391 450 22,700 1,740 Climbing Seattle Center
03:42PM 46.5114 -122.1483 176° South 402 463 24,500 1,440 Climbing Seattle Center
03:43PM 46.3975 -122.1347 175° South 414 476 25,700 1,260 Climbing Seattle Center
03:44PM 46.2775 -122.1211 176° South 436 502 27,100 1,260 Climbing Seattle Center
03:45PM 46.1508 -122.1083 176° South 445 512 28,300 1,320 Climbing Seattle Center
03:46PM 46.0247 -122.0953 176° South 453 521 29,800 1,620 Climbing Seattle Center
03:47PM 45.9017 -122.0822 176° South 444 511 31,700 1,620 Climbing Seattle Center
03:48PM 45.7808 -122.0706 176° South 435 501 33,100 1,140 Climbing Seattle Center
03:49PM 45.6572 -122.0589 176° South 441 507 34,100 900 Climbing Seattle Center
03:50PM 45.5336 -122.0461 176° South 444 511 35,000 840 Climbing Seattle Center
03:51PM 45.3814 -122.0306 176° South 454 522 35,900 780 Climbing Seattle Center
03:52PM 45.2533 -122.0178 176° South 458 527 36,700 540 Climbing Seattle Center
03:53PM 45.1253 -122.0050 176° South 460 529 37,000 120 Climbing Seattle Center
03:54PM 44.9967 -121.9925 176° South 461 531 37,000  Level Seattle Center
03:55PM 44.8708 -121.9786 176° South 469 540 37,000  Level Seattle Center
03:56PM 44.7386 -121.9653 176° South 472 543 37,000  Level Seattle Center
03:57PM 44.6075 -121.9528 176° South 472 543 37,000  Level Seattle Center
03:58PM 44.4764 -121.9394 176° South 472 543 37,000  Level Seattle Center
03:59PM 44.3433 -121.9272 176° South 475 547 37,000  Level Seattle Center
04:00PM 44.2119 -121.9144 176° South 473 544 37,000  Level Seattle Center
04:01PM 44.0806 -121.9019 176° South 472 543 37,000  Level Seattle Center
04:02PM 43.9214 -121.8886 177° South 474 545 37,000  Level Seattle Center
04:03PM 43.7864 -121.8764 176° South 479 551 37,000  Level Seattle Center
04:04PM 43.6794 -121.8664 176° South 477 549 37,000  Level Seattle Center
04:05PM 43.5211 -121.8517 176° South 477 549 37,000  Level Seattle Center
04:06PM 43.3889 -121.8400 176° South 477 549 37,000  Level Seattle Center
04:07PM 43.2556 -121.8278 176° South 480 552 37,000  Level Seattle Center
04:08PM 43.1233 -121.8167 176° South 479 551 37,000  Level Seattle Center
04:09PM 42.9892 -121.8039 176° South 483 556 37,000  Level Seattle Center
04:10PM 42.8550 -121.7925 176° South 483 556 37,000  Level Seattle Center
04:11PM 42.7225 -121.7800 176° South 480 552 37,000  Level Seattle Center
04:12PM 42.5878 -121.7672 176° South 481 554 37,000  Level Seattle Center
04:14PM 42.4550 -121.7544 176° South 480 552 37,000  Level Seattle Center
04:15PM 42.3206 -121.7428 176° South 481 554 37,000  Level Seattle Center
04:16PM 42.1850 -121.7306 176° South 482 555 37,000  Level Seattle Center
04:17PM 42.0475 -121.7269 179° South 483 556 37,000  Level Seattle Center
04:18PM 41.9117 -121.7264 180° South 478 550 37,000  Level Seattle Center
04:19PM 41.7769 -121.7256 180° South 478 550 37,000  Level Seattle Center
04:20PM 41.6428 -121.7250 180° South 480 552 37,000  Level Seattle Center
04:21PM 41.5083 -121.7200 178° South 481 554 37,000  Level Seattle Center
04:22PM 41.3728 -121.7114 177° South 484 557 37,000  Level Seattle Center
04:23PM 41.2375 -121.7056 178° South 485 558 37,000  Level Seattle Center
04:24PM 41.0750 -121.6972 178° South 488 562 37,000  Level Seattle Center
04:24PM 41.0272 -121.6942 177° South 486 559 37,000  Level Oakland Center
04:25PM 40.8908 -121.6864 178° South 488 562 37,000 -60 Level Oakland Center
04:26PM 40.7281 -121.6781 178° South 487 560 36,900 -900 Descending Oakland Center
04:27PM 40.5944 -121.6719 178° South 483 556 35,200 -2,280 Descending Oakland Center
04:28PM 40.4636 -121.6658 178° South 473 544 32,300 -3,000 Descending Oakland Center
04:29PM 40.3311 -121.6589 178° South 472 543 29,100 -2,760 Descending Oakland Center
04:30PM 40.1983 -121.6528 178° South 473 544 26,700 -2,400 Descending Oakland Center
04:31PM 40.0722 -121.6469 178° South 454 522 24,300 -2,280 Descending Oakland Center
04:32PM 39.9503 -121.6414 178° South 439 505 22,100 -2,160 Descending Oakland Center
04:33PM 39.8344 -121.6361 178° South 419 482 19,900 -2,160 Descending Oakland Center
04:34PM 39.7256 -121.6297 177° South 394 453 17,700 -2,100 Descending Oakland Center
04:35PM 39.6200 -121.6250 178° South 380 437 15,700 -2,160 Descending Oakland Center
04:36PM 39.4994 -121.6203 178° South 361 415 13,300 -2,100 Descending Oakland Center
04:38PM 39.4092 -121.6158 178° South 344 396 11,400 -1,560 Descending Oakland Center
04:39PM 39.3181 -121.6128 179° South 330 380 10,200 -1,260 Descending Oakland Center
04:40PM 39.2392 -121.6081 177° South 291 335 8,900 -1,380 Descending Oakland Center
04:41PM 39.1600 -121.6047 178° South 285 328 7,400 -1,800 Descending Oakland Center
04:41PM 39.0833 -121.6000 177° South 282 325 5,600 -1,740 Descending Northern Cal TRACON
04:42PM 39.0167 -121.6000 180° South 277 319 4,200 -1,380 Descending Northern Cal TRACON
04:43PM 38.9333 -121.6000 180° South 277 319 3,000 -1,260 Descending Northern Cal TRACON
04:44PM 38.8667 -121.6000 180° South 262 302 1,900 -600 Descending Northern Cal TRACON
04:45PM 38.8000 -121.6000 180° South 225 259 1,900 -600 Level Northern Cal TRACON
04:46PM 38.7500 -121.6000 180° South 176 203 800 -900 Descending Northern Cal TRACON
04:47PM 38.7000 -121.6000 180° South 138 159 100 -720 Descending Northern Cal TRACON
04:50PM 38.6954 -121.5908 180° South  Level Estimated